Map

Track Data

SID SEASON NUMBER BASIN SUBBASIN NAME ISO_TIME NATURE LAT LON WMO_WIND WMO_PRES WMO_AGENCY TRACK_TYPE DIST2LAND LANDFALL IFLAG USA_AGENCY USA_ATCF_ID USA_LAT USA_LON USA_RECORD USA_STATUS USA_WIND USA_PRES USA_SSHS USA_R34_NE USA_R34_SE USA_R34_SW USA_R34_NW USA_R50_NE USA_R50_SE USA_R50_SW USA_R50_NW USA_R64_NE USA_R64_SE USA_R64_SW USA_R64_NW USA_POCI USA_ROCI USA_RMW USA_EYE TOKYO_LAT TOKYO_LON TOKYO_GRADE TOKYO_WIND TOKYO_PRES TOKYO_R50_DIR TOKYO_R50_LONG TOKYO_R50_SHORT TOKYO_R30_DIR TOKYO_R30_LONG TOKYO_R30_SHORT TOKYO_LAND CMA_LAT CMA_LON CMA_CAT CMA_WIND CMA_PRES HKO_LAT HKO_LON HKO_CAT HKO_WIND HKO_PRES NEWDELHI_LAT NEWDELHI_LON NEWDELHI_GRADE NEWDELHI_WIND NEWDELHI_PRES NEWDELHI_CI NEWDELHI_DP NEWDELHI_POCI REUNION_LAT REUNION_LON REUNION_TYPE REUNION_WIND REUNION_PRES REUNION_TNUM REUNION_CI REUNION_RMW REUNION_R34_NE REUNION_R34_SE REUNION_R34_SW REUNION_R34_NW REUNION_R50_NE REUNION_R50_SE REUNION_R50_SW REUNION_R50_NW REUNION_R64_NE REUNION_R64_SE REUNION_R64_SW REUNION_R64_NW BOM_LAT BOM_LON BOM_TYPE BOM_WIND BOM_PRES BOM_TNUM BOM_CI BOM_RMW BOM_R34_NE BOM_R34_SE BOM_R34_SW BOM_R34_NW BOM_R50_NE BOM_R50_SE BOM_R50_SW BOM_R50_NW BOM_R64_NE BOM_R64_SE BOM_R64_SW BOM_R64_NW BOM_ROCI BOM_POCI BOM_EYE BOM_POS_METHOD BOM_PRES_METHOD NADI_LAT NADI_LON NADI_CAT NADI_WIND NADI_PRES WELLINGTON_LAT WELLINGTON_LON WELLINGTON_WIND WELLINGTON_PRES DS824_LAT DS824_LON DS824_STAGE DS824_WIND DS824_PRES TD9636_LAT TD9636_LON TD9636_STAGE TD9636_WIND TD9636_PRES TD9635_LAT TD9635_LON TD9635_WIND TD9635_PRES TD9635_ROCI NEUMANN_LAT NEUMANN_LON NEUMANN_CLASS NEUMANN_WIND NEUMANN_PRES MLC_LAT MLC_LON MLC_CLASS MLC_WIND MLC_PRES USA_GUST BOM_GUST BOM_GUST_PER REUNION_GUST REUNION_GUST_PER USA_SEAHGT USA_SEARAD_NE USA_SEARAD_SE USA_SEARAD_SW USA_SEARAD_NW STORM_SPEED STORM_DIR
1969273N16248 1969 91 EP MM IRAH 1969-09-30 00:00:00 TS 15.9000 -112.000 45 hurdat_epa main 810 810 O________OO___ hurdat_epa EP091969 15.9000 -112.000 TS 45 0 15.9000 -112.000 TC 45 15.9000 -112.000 1 7 279
1969273N16248 1969 91 EP MM IRAH 1969-09-30 03:00:00 TS 15.9511 -112.354 main 811 811 P________PP___ EP091969 15.9501 -112.357 TS 45 0 15.9501 -112.357 TC 45 15.9552 -112.342 1 7 279
1969273N16248 1969 91 EP MM IRAH 1969-09-30 06:00:00 TS 16.0016 -112.695 45 hurdat_epa main 822 822 O________OP___ hurdat_epa EP091969 16.0000 -112.700 TS 45 0 16.0000 -112.700 TC 45 16.0080 -112.677 1 6 279
1969273N16248 1969 91 EP MM IRAH 1969-09-30 09:00:00 TS 16.0513 -113.012 main 822 822 P________PP___ EP091969 16.0500 -113.015 TS 45 0 16.0500 -113.015 TC 45 16.0569 -112.999 1 6 280
1969273N16248 1969 91 EP MM IRAH 1969-09-30 12:00:00 TS 16.1000 -113.300 45 hurdat_epa main 835 835 O________OO___ hurdat_epa EP091969 16.1000 -113.300 TS 45 0 16.1000 -113.300 TC 45 16.1000 -113.300 2 5 280
1969273N16248 1969 91 EP MM IRAH 1969-09-30 15:00:00 TS 16.1475 -113.561 main 848 838 P________PP___ EP091969 16.1499 -113.558 TS 45 0 16.1499 -113.558 TC 45 16.1376 -113.576 2 5 281
1969273N16248 1969 91 EP MM IRAH 1969-09-30 18:00:00 TS 16.1955 -113.806 45 hurdat_epa main 848 848 O________OP___ hurdat_epa EP091969 16.2000 -113.800 TS 45 0 16.2000 -113.800 TC 45 16.1773 -113.830 2 5 281
1969273N16248 1969 91 EP MM IRAH 1969-09-30 21:00:00 TS 16.2396 -114.054 main 863 853 P________PP___ EP091969 16.2425 -114.050 TS 45 0 16.2425 -114.050 TC 45 16.2283 -114.070 2 5 282
1969273N16248 1969 91 EP MM IRAH 1969-10-01 00:00:00 TS 16.3000 -114.300 45 hurdat_epa main 864 864 O________OO___ hurdat_epa EP091969 16.3000 -114.300 TS 45 0 16.3000 -114.300 TC 45 16.3000 -114.300 2 5 287
1969273N16248 1969 91 EP MM IRAH 1969-10-01 03:00:00 TS 16.3895 -114.556 main 871 868 P________PP___ EP091969 16.3850 -114.558 TS 45 0 16.3850 -114.558 TC 45 16.4075 -114.552 2 5 293
1969273N16248 1969 91 EP MM IRAH 1969-10-01 06:00:00 TS 16.5070 -114.799 45 hurdat_epa main 874 871 O________OP___ hurdat_epa EP091969 16.5000 -114.800 TS 45 0 16.5000 -114.800 TC 45 16.5350 -114.795 2 5 301
1969273N16248 1969 91 EP MM IRAH 1969-10-01 09:00:00 TS 16.6540 -115.015 main 868 865 P________PP___ EP091969 16.6500 -115.015 TS 45 0 16.6500 -115.015 TC 45 16.6700 -115.015 2 5 307
1969273N16248 1969 91 EP MM IRAH 1969-10-01 12:00:00 TS 16.8000 -115.200 45 hurdat_epa main 872 870 O________OO___ hurdat_epa EP091969 16.8000 -115.200 TS 45 0 16.8000 -115.200 TC 45 16.8000 -115.200 2 4 307
1969273N16248 1969 91 EP MM IRAH 1969-10-01 15:00:00 TS 16.9082 -115.373 main 876 868 P________PP___ EP091969 16.9075 -115.373 TS 45 0 16.9075 -115.373 TC 45 16.9111 -115.373 2 4 305
1969273N16248 1969 91 EP MM IRAH 1969-10-01 18:00:00 TS 17.0030 -115.501 45 hurdat_epa main 874 873 O________OP___ hurdat_epa EP091969 17.0000 -115.500 TS 45 0 17.0000 -115.500 TC 45 17.0148 -115.505 2 3 313
1969273N16248 1969 91 EP MM IRAH 1969-10-01 21:00:00 TS 17.1022 -115.587 main 873 864 P________PP___ EP091969 17.1000 -115.587 TS 45 0 17.1000 -115.587 TC 45 17.1111 -115.585 2 2 333
1969273N16248 1969 91 EP MM IRAH 1969-10-02 00:00:00 TS 17.2000 -115.600 45 hurdat_epa main 864 849 O________OO___ hurdat_epa EP091969 17.2000 -115.600 TS 45 0 17.2000 -115.600 TC 45 17.2000 -115.600 2 2 15
1969273N16248 1969 91 EP MM IRAH 1969-10-02 03:00:00 TS 17.3041 -115.532 main 849 834 P________PP___ EP091969 17.3075 -115.530 TS 45 0 17.3075 -115.530 TC 45 17.2903 -115.540 2 3 44
1969273N16248 1969 91 EP MM IRAH 1969-10-02 06:00:00 TS 17.3945 -115.404 45 hurdat_epa main 834 818 O________OP___ hurdat_epa EP091969 17.4000 -115.400 TS 45 0 17.4000 -115.400 TC 45 17.3726 -115.418 2 3 60
1969273N16248 1969 91 EP MM IRAH 1969-10-02 09:00:00 TS 17.4547 -115.252 main 818 804 P________PP___ EP091969 17.4575 -115.250 TS 45 0 17.4575 -115.250 TC 45 17.4435 -115.262 2 3 70
1969273N16248 1969 91 EP MM IRAH 1969-10-02 12:00:00 TS 17.5000 -115.100 45 hurdat_epa main 804 789 O________OO___ hurdat_epa EP091969 17.5000 -115.100 TS 45 0 17.5000 -115.100 TC 45 17.5000 -115.100 1 3 68
1969273N16248 1969 91 EP MM IRAH 1969-10-02 15:00:00 TS 17.5547 -114.995 main 789 782 P________PP___ EP091969 17.5575 -115.000 TS 45 0 17.5575 -115.000 TC 45 17.5434 -114.975 1 2 65
1969273N16248 1969 91 EP MM IRAH 1969-10-02 18:00:00 TS 17.5945 -114.890 45 hurdat_epa main 782 775 O________OP___ hurdat_epa EP091969 17.6000 -114.900 TS 45 0 17.6000 -114.900 TC 45 17.5725 -114.850 1 2 78
1969273N16248 1969 91 EP MM IRAH 1969-10-02 21:00:00 TS 17.6041 -114.751 main 775 762 P________PP___ EP091969 17.6075 -114.757 TS 35 0 17.6075 -114.757 TC 35 17.5903 -114.725 1 3 89
1969273N16248 1969 91 EP MM IRAH 1969-10-03 00:00:00 TS 17.6000 -114.600 25 hurdat_epa main 762 755 O________OO___ hurdat_epa EP091969 17.6000 -114.600 TD 25 -1 17.6000 -114.600 TC 25 17.6000 -114.600 1 3 91
1969273N16248 1969 91 EP MM IRAH 1969-10-03 03:00:00 TS 17.6009 -114.449 main 749 743 P________PP___ EP091969 17.6000 -114.443 TD 25 -1 17.6000 -114.443 TC 25 17.6044 -114.475 1 3 90
1969273N16248 1969 91 EP MM IRAH 1969-10-03 06:00:00 TS 17.6010 -114.310 25 hurdat_epa main 743 736 O________OP___ hurdat_epa EP091969 17.6000 -114.300 TD 25 -1 17.6000 -114.300 TC 25 17.6051 -114.350 1 2 90
1969273N16248 1969 91 EP MM IRAH 1969-10-03 09:00:00 TS 17.6006 -114.197 main 736 730 P________PP___ EP091969 17.6000 -114.190 TD 25 -1 17.6000 -114.190 TC 25 17.6032 -114.225 1 2 90
1969273N16248 1969 91 EP MM IRAH 1969-10-03 12:00:00 TS 17.6000 -114.100 25 hurdat_epa main 730 O________OO___ hurdat_epa EP091969 17.6000 -114.100 TD 25 -1 17.6000 -114.100 TC 25 17.6000 -114.100 1 2 90

About IBTrACS Database

This database is a web-friendly format of International Best Track Archive for Climate Stewardship (IBTrACS), a global best track data archive curated by NOAA dating back to 1842.

Updated: 2021-12-03